createdAt,value
2018-03-20T00:01:30.098Z,14.60
2018-03-20T00:03:57.589Z,16.33
2018-03-20T00:06:26.474Z,17.50
2018-03-20T00:08:53.958Z,17.00
2018-03-20T00:11:22.224Z,13.43
2018-03-20T00:13:49.811Z,14.45
2018-03-20T00:16:18.072Z,14.27
2018-03-20T00:18:45.776Z,15.32
2018-03-20T00:21:14.040Z,12.77
2018-03-20T00:23:41.565Z,16.62
2018-03-20T00:26:09.058Z,14.05
2018-03-20T00:28:36.776Z,13.77
2018-03-20T00:31:04.276Z,14.82
2018-03-20T00:33:31.812Z,17.80
2018-03-20T00:35:59.483Z,13.17
2018-03-20T00:38:27.106Z,12.60
2018-03-20T00:40:54.605Z,12.80
2018-03-20T00:43:22.133Z,15.80
2018-03-20T00:45:49.649Z,16.40
2018-03-20T00:48:17.252Z,12.23
2018-03-20T00:50:45.572Z,13.00
2018-03-20T00:53:13.072Z,13.10
2018-03-20T00:55:40.577Z,12.63
2018-03-20T00:58:08.870Z,14.75
2018-03-20T01:00:37.241Z,12.23
2018-03-20T01:03:04.732Z,17.65
2018-03-20T01:05:33.034Z,9.52
2018-03-20T01:08:00.619Z,10.85
2018-03-20T01:10:28.152Z,9.43
2018-03-20T01:12:55.726Z,12.57
2018-03-20T01:15:24.023Z,11.05
2018-03-20T01:17:52.301Z,9.50
2018-03-20T01:20:19.812Z,19.90
2018-03-20T01:22:47.438Z,13.57
2018-03-20T01:25:14.984Z,12.43
2018-03-20T01:27:42.451Z,12.95
2018-03-20T01:30:10.003Z,10.60
2018-03-20T01:32:37.519Z,11.60
2018-03-20T01:35:05.111Z,12.90
2018-03-20T01:37:33.403Z,11.15
2018-03-20T01:40:01.657Z,11.27
2018-03-20T01:42:29.446Z,13.20
2018-03-20T01:44:56.972Z,13.88
2018-03-20T01:47:24.462Z,12.60
2018-03-20T01:49:52.086Z,14.98
2018-03-20T01:52:25.362Z,14.20
2018-03-20T01:54:52.893Z,13.98
2018-03-20T01:57:20.417Z,11.50
2018-03-20T01:59:48.691Z,11.00
2018-03-20T02:02:16.198Z,10.40
2018-03-20T02:04:43.783Z,12.50
2018-03-20T02:07:11.316Z,18.05
2018-03-20T02:09:39.631Z,10.35
2018-03-20T02:12:07.261Z,11.88
2018-03-20T02:14:34.867Z,11.50
2018-03-20T02:17:03.160Z,9.85
2018-03-20T02:19:30.716Z,13.23
2018-03-20T02:21:58.971Z,11.15
2018-03-20T02:24:26.495Z,9.70
2018-03-20T02:26:54.135Z,11.25
2018-03-20T02:29:22.571Z,11.48
2018-03-20T02:31:50.064Z,11.15
2018-03-20T02:34:17.711Z,12.07
2018-03-20T02:36:45.253Z,11.57
2018-03-20T02:39:13.638Z,11.77
2018-03-20T02:41:41.244Z,12.07
2018-03-20T02:44:08.879Z,11.30
2018-03-20T02:46:36.365Z,10.95
2018-03-20T02:49:04.682Z,10.40
2018-03-20T02:51:32.224Z,14.05
2018-03-20T02:54:00.500Z,12.70
2018-03-20T02:56:28.130Z,12.75
2018-03-20T02:58:55.618Z,11.30
2018-03-20T03:01:23.139Z,17.75
2018-03-20T03:03:50.630Z,10.73
2018-03-20T03:06:18.191Z,12.60
2018-03-20T03:08:45.718Z,13.90
2018-03-20T03:11:13.252Z,13.30
2018-03-20T03:13:40.769Z,12.25
2018-03-20T03:16:09.089Z,12.30
2018-03-20T03:18:36.663Z,11.32
2018-03-20T03:21:04.166Z,18.75
2018-03-20T03:23:31.655Z,13.57
2018-03-20T03:25:59.246Z,16.65
2018-03-20T03:28:26.765Z,13.23
2018-03-20T03:30:54.248Z,12.68
2018-03-20T03:33:21.743Z,12.82
2018-03-20T03:35:49.443Z,10.77
2018-03-20T03:38:17.688Z,11.30
2018-03-20T03:40:45.313Z,13.13
2018-03-20T03:43:13.589Z,13.80
2018-03-20T03:45:42.611Z,15.52
2018-03-20T03:48:10.857Z,14.65
2018-03-20T03:50:39.109Z,12.05
2018-03-20T03:53:06.639Z,11.88
2018-03-20T03:55:34.959Z,15.20
2018-03-20T03:58:02.497Z,11.98
2018-03-20T04:00:30.786Z,10.45
2018-03-20T04:02:59.071Z,12.65
2018-03-20T04:05:27.345Z,12.95
2018-03-20T04:07:55.074Z,13.15
2018-03-20T04:10:22.571Z,13.20
2018-03-20T04:12:50.174Z,15.13
2018-03-20T04:15:17.707Z,13.48
2018-03-20T04:17:45.203Z,12.37
2018-03-20T04:20:12.752Z,13.18
2018-03-20T04:22:40.237Z,14.18
2018-03-20T04:25:07.720Z,13.10
2018-03-20T04:27:35.826Z,11.48
2018-03-20T04:30:04.090Z,15.20
2018-03-20T04:32:31.670Z,16.65
2018-03-20T04:34:59.932Z,13.62
2018-03-20T04:37:27.460Z,14.23
2018-03-20T04:39:55.004Z,11.48
2018-03-20T04:42:23.260Z,11.35
2018-03-20T04:44:50.877Z,16.73
2018-03-20T04:47:19.178Z,13.45
2018-03-20T04:49:46.692Z,15.30
2018-03-20T04:52:14.207Z,17.73
2018-03-20T04:54:42.527Z,14.80
2018-03-20T04:57:10.020Z,11.68
2018-03-20T04:59:37.610Z,12.57
2018-03-20T05:02:05.432Z,10.73
2018-03-20T05:04:32.954Z,18.37
2018-03-20T05:07:00.655Z,11.20
2018-03-20T05:09:28.970Z,13.62
2018-03-20T05:11:56.484Z,14.55
2018-03-20T05:14:24.073Z,11.27
2018-03-20T05:16:51.624Z,10.25
2018-03-20T05:19:21.575Z,16.75
2018-03-20T05:22:06.512Z,10.23
2018-03-20T05:24:34.040Z,12.15
2018-03-20T05:27:01.525Z,13.30
2018-03-20T05:29:29.029Z,13.35
2018-03-20T05:31:56.530Z,14.75
2018-03-20T05:34:24.080Z,14.13
2018-03-20T05:36:51.562Z,14.25
2018-03-20T05:39:19.047Z,12.77
2018-03-20T05:41:47.365Z,11.40
2018-03-20T05:44:14.884Z,15.43
2018-03-20T05:47:00.131Z,12.75
2018-03-20T05:49:28.562Z,15.90
2018-03-20T05:52:12.717Z,12.75
2018-03-20T05:54:40.313Z,11.60
2018-03-20T05:57:07.842Z,12.27
2018-03-20T05:59:35.337Z,10.98
2018-03-20T06:02:02.925Z,13.15
2018-03-20T06:04:30.532Z,10.82
2018-03-20T06:06:58.019Z,20.85
2018-03-20T06:09:25.567Z,14.80
2018-03-20T06:11:53.096Z,9.90
2018-03-20T06:14:21.356Z,12.10
2018-03-20T06:16:48.884Z,12.80
2018-03-20T06:19:17.143Z,10.32
2018-03-20T06:21:44.654Z,12.25
2018-03-20T06:24:12.181Z,14.75
2018-03-20T06:26:39.729Z,14.80
2018-03-20T06:29:07.259Z,10.73
2018-03-20T06:31:35.657Z,16.65
2018-03-20T06:34:03.182Z,16.12
2018-03-20T06:36:30.662Z,11.23
2018-03-20T06:38:58.247Z,9.85
2018-03-20T06:41:25.806Z,13.25
2018-03-20T06:43:53.336Z,12.18
2018-03-20T06:46:20.819Z,11.30
2018-03-20T06:48:48.307Z,11.80
2018-03-20T06:51:15.903Z,13.50
2018-03-20T06:53:44.196Z,12.20
2018-03-20T06:56:11.724Z,12.48
2018-03-20T06:58:39.227Z,11.07
2018-03-20T07:01:07.551Z,13.60
2018-03-20T07:03:35.278Z,23.40
2018-03-20T07:06:02.794Z,14.75
2018-03-20T07:08:30.316Z,14.63
2018-03-20T07:10:57.813Z,14.27
2018-03-20T07:13:26.083Z,14.23
2018-03-20T07:15:53.611Z,24.35
2018-03-20T07:18:21.125Z,12.20
2018-03-20T07:20:48.689Z,10.77
2018-03-20T07:23:16.214Z,12.85
2018-03-20T07:25:43.900Z,16.02
2018-03-20T07:28:11.406Z,13.25
2018-03-20T07:30:38.938Z,16.08
2018-03-20T07:33:06.419Z,15.60
2018-03-20T07:35:33.946Z,11.68
2018-03-20T07:38:01.491Z,19.05
2018-03-20T07:40:29.789Z,15.20
2018-03-20T07:42:58.055Z,16.75
2018-03-20T07:45:26.346Z,13.45
2018-03-20T07:47:53.916Z,15.85
2018-03-20T07:50:21.403Z,12.35
2018-03-20T07:52:48.992Z,17.40
2018-03-20T07:55:16.499Z,16.77
2018-03-20T07:57:44.010Z,18.08
2018-03-20T08:00:12.270Z,18.25
2018-03-20T08:02:39.929Z,15.63
2018-03-20T08:05:07.651Z,17.70
2018-03-20T08:07:35.231Z,16.02
2018-03-20T08:10:03.522Z,15.48
2018-03-20T08:12:31.811Z,12.98
2018-03-20T08:15:00.144Z,16.02
2018-03-20T08:17:27.692Z,15.57
2018-03-20T08:19:55.991Z,15.40
2018-03-20T08:22:23.504Z,11.35
2018-03-20T08:24:51.716Z,17.35
2018-03-20T08:27:19.991Z,17.05
2018-03-20T08:29:47.584Z,14.65
2018-03-20T08:32:15.856Z,14.48
2018-03-20T08:34:44.140Z,17.70
2018-03-20T08:37:11.767Z,15.80
2018-03-20T08:39:39.549Z,13.43
2018-03-20T08:42:07.045Z,12.82
2018-03-20T08:44:34.652Z,14.68
2018-03-20T08:47:02.916Z,15.50
2018-03-20T08:49:30.434Z,16.70
2018-03-20T08:51:57.979Z,21.77
2018-03-20T08:54:26.248Z,15.13
2018-03-20T08:56:53.849Z,19.62
2018-03-20T08:59:21.351Z,15.38
2018-03-20T09:01:48.948Z,19.58
2018-03-20T09:04:16.462Z,16.87
2018-03-20T09:06:43.992Z,18.73
2018-03-20T09:09:11.547Z,16.85
2018-03-20T09:11:39.229Z,17.83
2018-03-20T09:14:06.742Z,15.32
2018-03-20T09:16:35.060Z,14.50
2018-03-20T09:19:02.593Z,16.27
2018-03-20T09:21:30.894Z,16.45
2018-03-20T09:23:58.685Z,15.35
2018-03-20T09:26:26.206Z,16.77
2018-03-20T09:28:53.854Z,15.98
2018-03-20T09:31:21.486Z,21.58
2018-03-20T09:33:49.838Z,22.00
2018-03-20T09:36:17.421Z,19.77
2018-03-20T09:38:45.084Z,15.50
2018-03-20T09:41:12.696Z,15.65
2018-03-20T09:43:40.276Z,22.13
2018-03-20T09:46:07.966Z,17.30
2018-03-20T09:48:35.477Z,15.50
2018-03-20T09:51:02.971Z,22.77
2018-03-20T09:53:31.284Z,17.43
2018-03-20T09:55:58.815Z,18.03
2018-03-20T09:58:26.326Z,16.80
2018-03-20T10:00:53.952Z,17.93
2018-03-20T10:03:21.482Z,16.93
2018-03-20T10:05:48.978Z,17.47
2018-03-20T10:08:16.526Z,17.57
2018-03-20T10:10:44.003Z,23.40
2018-03-20T10:13:12.227Z,19.97
2018-03-20T10:15:39.827Z,20.67
2018-03-20T10:18:08.111Z,18.77
2018-03-20T10:20:36.418Z,16.27
2018-03-20T10:23:03.994Z,22.67
2018-03-20T10:25:31.530Z,24.47
2018-03-20T10:27:59.815Z,22.87
2018-03-20T10:30:28.117Z,21.80
2018-03-20T10:32:56.486Z,22.50
2018-03-20T10:35:24.478Z,21.50
2018-03-20T10:37:52.874Z,27.50
2018-03-20T10:40:21.235Z,22.87
2018-03-20T10:42:48.737Z,20.60
2018-03-20T10:45:17.019Z,21.20
2018-03-20T10:47:45.318Z,23.90
2018-03-20T10:50:13.626Z,24.00
2018-03-20T10:52:41.128Z,20.97
2018-03-20T10:55:08.663Z,21.13
2018-03-20T10:57:36.168Z,21.70
2018-03-20T11:00:04.247Z,27.43
2018-03-20T11:02:31.757Z,21.60
2018-03-20T11:04:59.447Z,21.90
2018-03-20T11:07:27.092Z,18.10
2018-03-20T11:09:54.574Z,24.27
2018-03-20T11:12:22.186Z,22.77
2018-03-20T11:14:50.460Z,18.37
2018-03-20T11:17:19.026Z,19.90
2018-03-20T11:19:46.601Z,23.07
2018-03-20T11:22:14.898Z,22.43
2018-03-20T11:24:43.239Z,19.27
2018-03-20T11:27:10.760Z,17.80
2018-03-20T11:29:39.020Z,17.97
2018-03-20T11:32:06.621Z,17.40
2018-03-20T11:34:34.911Z,20.87
2018-03-20T11:37:03.471Z,21.13
2018-03-20T11:39:31.076Z,18.70
2018-03-20T11:41:59.458Z,19.97
2018-03-20T11:44:28.250Z,21.20
2018-03-20T11:46:55.787Z,20.77
2018-03-20T11:49:24.146Z,19.90
2018-03-20T11:51:51.695Z,21.00
2018-03-20T11:54:19.952Z,20.60
2018-03-20T11:56:47.458Z,20.10
2018-03-20T11:59:15.728Z,23.57
2018-03-20T12:01:43.257Z,21.60
2018-03-20T12:04:10.766Z,22.10
2018-03-20T12:06:38.536Z,24.77
2018-03-20T12:12:11.324Z,20.90
2018-03-20T12:14:38.812Z,23.63
2018-03-20T12:17:06.398Z,18.27
2018-03-20T12:19:34.161Z,20.00
2018-03-20T12:22:01.746Z,22.47
2018-03-20T12:24:29.244Z,19.23
2018-03-20T12:26:57.507Z,22.33
2018-03-20T12:29:25.100Z,19.70
2018-03-20T12:31:53.449Z,21.20
2018-03-20T12:34:21.656Z,20.53
2018-03-20T12:36:49.241Z,16.90
2018-03-20T12:39:16.916Z,30.40
2018-03-20T12:41:44.519Z,19.00
2018-03-20T12:44:12.067Z,21.30
2018-03-20T12:46:39.785Z,19.83
2018-03-20T12:49:07.324Z,20.43
2018-03-20T12:51:35.615Z,15.53
2018-03-20T12:54:03.889Z,20.23
2018-03-20T12:56:31.444Z,20.87
2018-03-20T12:58:58.935Z,19.60
2018-03-20T13:01:27.292Z,17.97
2018-03-20T13:03:54.781Z,15.60
2018-03-20T13:06:22.264Z,18.70
2018-03-20T13:08:50.664Z,17.30
2018-03-20T13:11:18.970Z,17.57
2018-03-20T13:13:46.529Z,15.37
2018-03-20T13:16:14.101Z,17.13
2018-03-20T13:18:42.406Z,16.43
2018-03-20T13:21:09.982Z,18.33
2018-03-20T13:23:37.683Z,19.13
2018-03-20T13:26:05.190Z,26.07
2018-03-20T13:28:32.723Z,16.53
2018-03-20T13:31:00.406Z,16.63
2018-03-20T13:33:27.907Z,16.70
2018-03-20T13:35:56.178Z,17.20
2018-03-20T13:38:23.667Z,16.70
2018-03-20T13:40:51.944Z,14.63
2018-03-20T13:43:19.455Z,18.10
2018-03-20T13:45:46.973Z,16.30
2018-03-20T13:48:14.469Z,14.07
2018-03-20T13:50:42.773Z,19.00
2018-03-20T13:53:10.742Z,16.80
2018-03-20T13:55:38.317Z,15.57
2018-03-20T13:58:06.582Z,14.63
2018-03-20T14:00:34.089Z,18.87
2018-03-20T14:03:01.625Z,17.00
2018-03-20T14:05:29.876Z,13.80
2018-03-20T14:07:57.435Z,15.00
2018-03-20T14:10:24.918Z,12.80
2018-03-20T14:12:52.422Z,11.03
2018-03-20T14:15:19.999Z,14.20
2018-03-20T14:17:48.473Z,13.17
2018-03-20T14:20:16.010Z,12.13
2018-03-20T14:22:43.508Z,13.57
2018-03-20T14:25:11.044Z,15.83
2018-03-20T14:27:38.562Z,9.90
2018-03-20T14:30:06.072Z,7.37
2018-03-20T14:32:33.675Z,9.43
2018-03-20T14:35:01.185Z,13.63
2018-03-20T14:37:28.684Z,11.23
2018-03-20T14:39:56.194Z,10.23
2018-03-20T14:42:23.692Z,11.37
2018-03-20T14:44:51.211Z,11.50
2018-03-20T14:47:18.739Z,10.23
2018-03-20T14:49:46.342Z,10.03
2018-03-20T14:52:13.849Z,8.00
2018-03-20T14:54:41.468Z,9.23
2018-03-20T14:57:09.724Z,8.63
2018-03-20T14:59:37.346Z,9.17
2018-03-20T15:02:04.873Z,7.87
2018-03-20T15:04:32.403Z,8.87
2018-03-20T15:06:59.920Z,8.30
2018-03-20T15:09:28.220Z,6.60
2018-03-20T15:11:56.497Z,5.23
2018-03-20T15:14:24.026Z,5.30
2018-03-20T15:16:51.563Z,5.70
2018-03-20T15:19:19.923Z,7.40
2018-03-20T15:21:48.270Z,6.63
2018-03-20T15:24:15.787Z,8.83
2018-03-20T15:26:43.423Z,5.70
2018-03-20T15:29:11.372Z,6.27
2018-03-20T15:31:39.743Z,3.87
2018-03-20T15:34:07.996Z,4.13
2018-03-20T15:36:35.530Z,3.50
2018-03-20T15:39:03.141Z,3.10
2018-03-20T15:41:30.675Z,4.27
2018-03-20T15:43:58.215Z,2.23
2018-03-20T15:46:25.738Z,2.60
2018-03-20T15:48:53.275Z,2.43
2018-03-20T15:51:21.546Z,4.13
2018-03-20T15:53:49.079Z,3.40
2018-03-20T15:56:16.584Z,4.30
2018-03-20T15:58:44.089Z,3.50
2018-03-20T16:01:11.745Z,2.70
2018-03-20T16:03:40.041Z,11.73
2018-03-20T16:06:07.842Z,2.70
2018-03-20T16:08:35.587Z,5.13
2018-03-20T16:11:04.493Z,8.73
2018-03-20T16:13:32.763Z,6.23
2018-03-20T16:16:01.130Z,5.73
2018-03-20T16:18:28.713Z,4.40
2018-03-20T16:20:56.312Z,3.97
2018-03-20T16:23:23.864Z,4.03
2018-03-20T16:25:51.415Z,2.13
2018-03-20T16:28:18.932Z,2.17
2018-03-20T16:30:46.469Z,5.50
2018-03-20T16:33:13.986Z,2.70
2018-03-20T16:35:41.859Z,4.50
2018-03-20T16:38:09.525Z,5.10
2018-03-20T16:40:37.083Z,4.87
2018-03-20T16:43:05.357Z,2.70
2018-03-20T16:45:33.266Z,3.60
2018-03-20T16:48:00.827Z,3.50
2018-03-20T16:50:29.227Z,3.20
2018-03-20T16:52:57.028Z,1.40
2018-03-20T16:55:24.571Z,2.60
2018-03-20T16:57:53.182Z,4.83
2018-03-20T17:00:21.060Z,4.50
2018-03-20T17:02:48.653Z,3.13
2018-03-20T17:05:16.433Z,9.30
2018-03-20T17:07:44.016Z,4.13
2018-03-20T17:10:11.837Z,4.13
2018-03-20T17:12:40.377Z,2.20
2018-03-20T17:15:08.142Z,4.10
2018-03-20T17:17:35.663Z,5.77
2018-03-20T17:20:04.072Z,5.90
2018-03-20T17:22:32.388Z,3.03
2018-03-20T17:25:00.060Z,2.10
2018-03-20T17:27:27.654Z,3.20
2018-03-20T17:29:55.187Z,8.83
2018-03-20T17:32:23.502Z,3.77
2018-03-20T17:34:51.063Z,11.73
2018-03-20T17:37:18.610Z,4.10
2018-03-20T17:39:46.877Z,3.30
2018-03-20T17:42:14.453Z,2.23
2018-03-20T17:44:42.266Z,1.50
2018-03-20T17:47:09.906Z,4.30
2018-03-20T17:49:37.540Z,4.87
2018-03-20T17:52:05.099Z,3.83
2018-03-20T17:54:33.007Z,6.07
2018-03-20T17:57:00.572Z,3.13
2018-03-20T17:59:28.218Z,4.93
2018-03-20T18:01:55.992Z,2.27
2018-03-20T18:04:23.948Z,8.50
2018-03-20T18:06:51.834Z,5.30
2018-03-20T18:09:20.454Z,2.07
2018-03-20T18:11:48.245Z,4.77
2018-03-20T18:14:16.132Z,3.60
2018-03-20T18:16:44.200Z,3.67
2018-03-20T18:19:12.040Z,5.90
2018-03-20T18:21:40.593Z,9.33
2018-03-20T18:24:08.546Z,4.63
2018-03-20T18:26:36.350Z,5.70
2018-03-20T18:29:03.956Z,4.40
2018-03-20T18:31:32.533Z,5.43
2018-03-20T18:34:00.623Z,3.70
2018-03-20T18:36:28.278Z,6.67
2018-03-20T18:38:56.164Z,7.33
2018-03-20T18:41:24.137Z,4.97
2018-03-20T18:43:52.021Z,7.50
2018-03-20T18:46:19.855Z,4.97
2018-03-20T18:48:47.557Z,2.70
2018-03-20T18:51:15.137Z,3.37
2018-03-20T18:53:42.878Z,4.93
2018-03-20T18:56:10.427Z,3.80
2018-03-20T18:58:39.057Z,2.73
2018-03-20T19:01:06.718Z,4.93
2018-03-20T19:03:34.481Z,4.30
2018-03-20T19:06:02.808Z,5.43
2018-03-20T19:08:30.634Z,4.93
2018-03-20T19:10:59.158Z,3.27
2018-03-20T19:13:26.936Z,3.53
2018-03-20T19:15:54.738Z,4.03
2018-03-20T19:18:22.269Z,6.00
2018-03-20T19:20:49.847Z,2.97
2018-03-20T19:23:17.626Z,3.97
2018-03-20T19:25:45.247Z,3.40
2018-03-20T19:28:12.848Z,4.60
2018-03-20T19:30:41.212Z,6.90
2018-03-20T19:33:08.963Z,3.90
2018-03-20T19:35:36.684Z,6.10
2018-03-20T19:38:05.039Z,2.43
2018-03-20T19:40:32.817Z,4.83
2018-03-20T19:43:00.688Z,6.87
2018-03-20T19:45:29.481Z,9.00
2018-03-20T19:47:57.360Z,3.33
2018-03-20T19:50:25.375Z,4.57
2018-03-20T19:52:53.301Z,4.57
2018-03-20T19:55:21.217Z,5.90
2018-03-20T19:57:49.384Z,4.77
2018-03-20T20:00:17.145Z,6.27
2018-03-20T20:02:45.281Z,6.80
2018-03-20T20:05:14.908Z,3.30
2018-03-20T20:07:43.292Z,2.90
2018-03-20T20:10:11.098Z,4.97
2018-03-20T20:12:39.667Z,4.50
2018-03-20T20:15:07.282Z,2.60
2018-03-20T20:17:34.946Z,6.57
2018-03-20T20:20:02.779Z,8.77
2018-03-20T20:22:31.520Z,10.33
2018-03-20T20:24:59.448Z,8.60
2018-03-20T20:27:27.036Z,2.90
2018-03-20T20:29:54.865Z,6.27
2018-03-20T20:32:22.663Z,3.57
2018-03-20T20:34:50.461Z,4.53
2018-03-20T20:37:18.115Z,4.40
2018-03-20T20:39:45.926Z,4.87
2018-03-20T20:42:14.673Z,5.27
2018-03-20T20:44:42.756Z,3.57
2018-03-20T20:47:10.504Z,3.50
2018-03-20T20:49:39.150Z,4.73
2018-03-20T20:52:07.007Z,6.10
2018-03-20T20:54:34.779Z,3.87
2018-03-20T20:57:02.474Z,5.13
2018-03-20T20:59:30.477Z,2.73
2018-03-20T21:01:58.116Z,8.03
2018-03-20T21:04:25.697Z,4.10
2018-03-20T21:06:53.248Z,7.53
2018-03-20T21:09:20.903Z,6.03
2018-03-20T21:11:49.329Z,3.43
2018-03-20T21:14:17.143Z,3.43
2018-03-20T21:16:44.688Z,3.07
2018-03-20T21:19:12.358Z,5.87
2018-03-20T21:21:39.913Z,3.80
2018-03-20T21:24:07.666Z,7.67
2018-03-20T21:26:36.496Z,7.60
2018-03-20T21:29:04.634Z,5.53
2018-03-20T21:31:32.654Z,3.70
2018-03-20T21:34:00.433Z,3.97
2018-03-20T21:36:28.108Z,8.47
2018-03-20T21:38:55.747Z,2.97
2018-03-20T21:41:24.168Z,5.70
2018-03-20T21:43:51.950Z,5.60
2018-03-20T21:46:19.515Z,4.60
2018-03-20T21:48:47.056Z,5.50
2018-03-20T21:51:14.642Z,3.43
2018-03-20T21:53:43.056Z,7.87
2018-03-20T21:56:10.735Z,4.93
2018-03-20T21:58:38.281Z,2.97
2018-03-20T22:01:06.738Z,10.00
2018-03-20T22:03:34.455Z,6.00
2018-03-20T22:06:02.116Z,8.77
2018-03-20T22:08:29.631Z,7.73
2018-03-20T22:10:57.994Z,4.57
2018-03-20T22:13:25.653Z,4.20
2018-03-20T22:15:53.277Z,3.40
2018-03-20T22:18:20.833Z,8.67
2018-03-20T22:20:48.358Z,4.43
2018-03-20T22:23:16.680Z,7.47
2018-03-20T22:25:44.348Z,5.03
2018-03-20T22:28:11.841Z,5.10
2018-03-20T22:30:39.465Z,12.03
2018-03-20T22:33:07.982Z,4.87
2018-03-20T22:35:35.518Z,5.80
2018-03-20T22:38:03.050Z,6.00
2018-03-20T22:40:32.135Z,3.80
2018-03-20T22:42:59.650Z,4.30
2018-03-20T22:45:27.338Z,4.80
2018-03-20T22:47:54.940Z,5.47
2018-03-20T22:50:23.210Z,4.13
2018-03-20T22:52:51.518Z,6.10
2018-03-20T22:55:19.205Z,5.90
2018-03-20T22:57:48.438Z,4.80
2018-03-20T23:00:28.068Z,5.70
2018-03-20T23:22:58.684Z,5.63
2018-03-20T23:25:26.192Z,4.20
2018-03-20T23:27:54.473Z,7.20
2018-03-20T23:33:13.418Z,2.20
2018-03-20T23:35:40.972Z,6.20
2018-03-20T23:38:08.591Z,4.20
2018-03-20T23:40:36.101Z,4.73
2018-03-20T23:43:04.378Z,2.90
2018-03-20T23:45:32.619Z,7.33
2018-03-20T23:48:00.114Z,4.70
2018-03-20T23:50:27.606Z,3.17
2018-03-20T23:52:55.894Z,4.37
2018-03-20T23:55:24.155Z,4.30
2018-03-20T23:57:51.638Z,4.20
